Time;durP1;ratioP1;P1;durP2;ratioP2;P2;SDS_P1;SDS_P2;PMS_P1;PMS_P2;Temp;Humidity;BMP_temperature;BMP_pressure;BME280_temperature;BME280_humidity;BME280_pressure;Samples;Min_cycle;Max_cycle;Signal;HPM_P1;HPM_P2
2022/12/25 00:00:28;;;;;;;;;;;9.20;99.90;;;;;;4992570;28;19916;-87
2022/12/25 00:02:53;;;;;;;;;;;9.30;99.90;;;;;;4991983;28;19914;-87
2022/12/25 00:05:18;;;;;;;;;;;9.30;99.90;;;;;;4994018;28;19910;-87
2022/12/25 00:07:44;;;;;;;;;;;9.40;99.90;;;;;;4996165;28;20276;-86
2022/12/25 00:10:10;;;;;;;;;;;9.40;99.90;;;;;;4996126;28;20009;-87
2022/12/25 00:12:35;;;;;;;;;;;9.40;99.90;;;;;;4995924;28;19910;-87
2022/12/25 00:15:01;;;;;;;;;;;9.50;99.90;;;;;;4996278;28;19914;-86
2022/12/25 00:17:26;;;;;;;;;;;9.50;99.90;;;;;;4995860;28;19941;-86
2022/12/25 00:19:52;;;;;;;;;;;9.50;99.90;;;;;;4995993;28;20295;-86
2022/12/25 00:22:17;;;;;;;;;;;9.50;99.90;;;;;;4995852;28;19996;-87
2022/12/25 00:24:43;;;;;;;;;;;9.50;99.90;;;;;;4996888;28;20285;-87
2022/12/25 00:27:08;;;;;;;;;;;9.60;99.90;;;;;;4995850;28;19917;-87
2022/12/25 00:29:34;;;;;;;;;;;9.60;99.90;;;;;;4995720;28;19980;-86
2022/12/25 00:31:59;;;;;;;;;;;9.60;99.90;;;;;;4995555;28;19917;-87
2022/12/25 00:34:25;;;;;;;;;;;9.60;99.90;;;;;;4995589;28;20008;-86
2022/12/25 00:36:50;;;;;;;;;;;9.60;99.90;;;;;;4995569;28;19910;-87
2022/12/25 00:39:18;;;;;;;;;;;9.70;99.90;;;;;;4995651;28;19909;-86
2022/12/25 00:44:31;;;;;;;;;;;9.80;99.90;;;;;;4997215;28;19917;-86
2022/12/25 00:46:57;;;;;;;;;;;9.80;99.90;;;;;;4995911;28;19949;-87
2022/12/25 00:49:25;;;;;;;;;;;9.90;99.90;;;;;;4995294;28;19980;-86
2022/12/25 00:51:51;;;;;;;;;;;9.90;99.90;;;;;;4992367;28;20260;-87
2022/12/25 00:54:17;;;;;;;;;;;10.00;99.90;;;;;;4989545;28;19933;-86
2022/12/25 00:56:43;;;;;;;;;;;10.10;99.90;;;;;;4987060;28;20000;-87
2022/12/25 00:59:09;;;;;;;;;;;10.10;99.90;;;;;;4998411;28;19910;-86
2022/12/25 01:01:34;;;;;;;;;;;10.10;99.90;;;;;;4987490;28;19916;-87
2022/12/25 01:04:00;;;;;;;;;;;10.20;99.90;;;;;;4979284;28;19910;-87
2022/12/25 01:06:26;;;;;;;;;;;10.20;99.90;;;;;;4978727;28;19910;-87
2022/12/25 01:11:35;;;;;;;;;;;10.30;99.90;;;;;;4996134;28;19964;-86
2022/12/25 01:14:01;;;;;;;;;;;10.30;99.90;;;;;;4978499;28;19909;-86
2022/12/25 01:16:27;;;;;;;;;;;10.30;99.90;;;;;;4978621;28;19909;-86
2022/12/25 01:18:52;;;;;;;;;;;10.30;99.90;;;;;;4978419;28;20379;-86
2022/12/25 01:21:21;;;;;;;;;;;10.30;99.90;;;;;;4978537;28;19910;-86
2022/12/25 01:23:47;;;;;;;;;;;10.20;99.90;;;;;;4975042;28;19953;-87
2022/12/25 01:26:13;;;;;;;;;;;10.20;99.90;;;;;;4998020;28;20410;-86
2022/12/25 01:28:38;;;;;;;;;;;10.20;99.90;;;;;;4997961;28;19932;-86
2022/12/25 01:31:07;;;;;;;;;;;10.20;99.90;;;;;;4997658;28;20371;-87
2022/12/25 01:33:32;;;;;;;;;;;10.20;99.90;;;;;;5015555;28;20010;-87
2022/12/25 01:35:58;;;;;;;;;;;10.20;99.90;;;;;;4997897;28;19913;-86
2022/12/25 01:38:23;;;;;;;;;;;10.20;99.90;;;;;;4997932;28;19972;-86
2022/12/25 01:40:49;;;;;;;;;;;10.10;99.90;;;;;;5015078;28;19917;-87
2022/12/25 01:43:28;;;;;;;;;;;10.10;99.90;;;;;;4961665;28;20427;-86
2022/12/25 01:45:53;;;;;;;;;;;10.20;99.90;;;;;;4959030;28;19910;-87
2022/12/25 01:48:24;;;;;;;;;;;10.20;99.90;;;;;;4967640;28;20516;-86
2022/12/25 01:50:55;;;;;;;;;;;10.20;99.90;;;;;;4997599;28;20011;-86
2022/12/25 01:53:21;;;;;;;;;;;10.20;99.90;;;;;;4997642;28;20363;-86
2022/12/25 01:55:47;;;;;;;;;;;10.30;99.90;;;;;;4997627;28;19909;-86
2022/12/25 01:58:13;;;;;;;;;;;10.20;99.90;;;;;;4997430;28;19949;-87
2022/12/25 02:00:39;;;;;;;;;;;10.30;99.90;;;;;;4997264;28;19917;-87
2022/12/25 02:03:04;;;;;;;;;;;10.30;99.90;;;;;;4996833;28;19940;-87
2022/12/25 02:05:31;;;;;;;;;;;10.30;99.90;;;;;;4997694;28;19977;-87
2022/12/25 02:07:58;;;;;;;;;;;10.30;99.90;;;;;;4978976;28;19921;-87
2022/12/25 02:10:24;;;;;;;;;;;10.30;99.90;;;;;;4977354;28;19921;-86
2022/12/25 02:12:52;;;;;;;;;;;10.30;99.90;;;;;;4977292;28;19910;-87
2022/12/25 02:15:19;;;;;;;;;;;10.30;99.90;;;;;;4977188;28;19914;-86
2022/12/25 02:18:03;;;;;;;;;;;10.30;99.90;;;;;;4977499;28;19910;-87
2022/12/25 02:20:45;;;;;;;;;;;10.30;99.90;;;;;;4977610;28;20001;-87
2022/12/25 02:23:16;;;;;;;;;;;10.30;99.90;;;;;;4976951;28;19910;-86
2022/12/25 02:25:47;;;;;;;;;;;10.30;99.90;;;;;;4977276;28;19952;-87
2022/12/25 02:28:28;;;;;;;;;;;10.30;99.90;;;;;;4976566;28;19956;-86
2022/12/25 02:31:04;;;;;;;;;;;10.30;99.90;;;;;;4977201;28;19914;-87
2022/12/25 02:36:22;;;;;;;;;;;10.30;99.90;;;;;;4994745;28;19968;-86
2022/12/25 02:41:56;;;;;;;;;;;10.30;99.90;;;;;;4915019;29;19918;-87
2022/12/25 03:06:42;;;;;;;;;;;10.50;99.90;;;;;;4994247;28;20426;-86
2022/12/25 03:12:14;;;;;;;;;;;10.50;99.90;;;;;;4994171;28;19917;-87
2022/12/25 03:17:23;;;;;;;;;;;10.50;99.90;;;;;;4993823;28;19965;-86
2022/12/25 03:28:03;;;;;;;;;;;10.50;99.90;;;;;;4993957;28;19917;-86
2022/12/25 03:35:21;;;;;;;;;;;10.60;99.90;;;;;;4993733;28;19917;-86
2022/12/25 03:36:37;;;;;;;;;;;10.60;99.90;;;;;;4991067;28;19921;-86
2022/12/25 04:36:49;;;;;;;;;;;10.70;99.90;;;;;;4974227;28;19972;-86
2022/12/25 04:39:14;;;;;;;;;;;10.70;99.90;;;;;;4956038;28;19910;-86
2022/12/25 04:41:40;;;;;;;;;;;10.70;99.90;;;;;;4959861;28;19925;-87
2022/12/25 04:44:05;;;;;;;;;;;10.70;99.90;;;;;;4977447;28;19909;-86
2022/12/25 04:46:31;;;;;;;;;;;10.80;99.90;;;;;;4994771;28;19920;-86
2022/12/25 04:48:56;;;;;;;;;;;10.70;99.90;;;;;;4994484;28;19965;-86
2022/12/25 04:51:23;;;;;;;;;;;10.70;99.90;;;;;;4996058;28;19917;-87
2022/12/25 04:53:49;;;;;;;;;;;10.70;99.90;;;;;;4998460;28;19956;-86
2022/12/25 04:56:15;;;;;;;;;;;10.60;99.90;;;;;;4998380;28;19956;-87
2022/12/25 04:58:40;;;;;;;;;;;10.50;99.90;;;;;;5015806;28;19922;-87
2022/12/25 05:01:06;;;;;;;;;;;10.40;99.90;;;;;;4959802;28;20372;-86
2022/12/25 05:03:32;;;;;;;;;;;10.30;99.90;;;;;;4959538;28;20478;-86
2022/12/25 05:05:57;;;;;;;;;;;10.20;99.90;;;;;;4975430;28;20459;-86
2022/12/25 05:08:23;;;;;;;;;;;10.20;99.90;;;;;;4976504;28;19972;-86
2022/12/25 05:10:48;;;;;;;;;;;10.10;99.90;;;;;;4959220;28;20351;-86
2022/12/25 05:13:14;;;;;;;;;;;10.20;99.90;;;;;;4975091;28;20388;-87
2022/12/25 05:15:41;;;;;;;;;;;10.10;99.90;;;;;;4959447;28;19922;-86
2022/12/25 05:18:06;;;;;;;;;;;10.10;99.90;;;;;;4959211;28;20363;-87
2022/12/25 05:20:32;;;;;;;;;;;10.10;99.90;;;;;;4959256;28;19921;-86
2022/12/25 05:22:57;;;;;;;;;;;10.10;99.90;;;;;;4959085;28;19910;-86
2022/12/25 05:25:23;;;;;;;;;;;10.10;99.90;;;;;;4976406;28;19911;-86
2022/12/25 05:27:48;;;;;;;;;;;10.20;99.90;;;;;;4975364;28;20391;-86
2022/12/25 05:30:14;;;;;;;;;;;10.10;99.90;;;;;;4998376;28;19936;-86
2022/12/25 05:32:39;;;;;;;;;;;10.10;99.90;;;;;;4998266;28;19910;-87
2022/12/25 05:35:07;;;;;;;;;;;10.10;99.90;;;;;;4998030;28;19909;-86
2022/12/25 05:37:33;;;;;;;;;;;10.10;99.90;;;;;;4997966;28;19931;-86
2022/12/25 05:39:59;;;;;;;;;;;10.10;99.90;;;;;;4998092;28;19909;-87
2022/12/25 05:42:24;;;;;;;;;;;10.10;99.90;;;;;;4998609;28;20426;-86
2022/12/25 05:44:50;;;;;;;;;;;10.10;99.90;;;;;;4998453;28;19910;-87
2022/12/25 05:47:15;;;;;;;;;;;10.20;99.90;;;;;;5015856;28;19916;-87
2022/12/25 05:49:41;;;;;;;;;;;10.30;99.90;;;;;;4998338;28;20395;-87
2022/12/25 05:52:06;;;;;;;;;;;10.30;99.90;;;;;;4998427;28;19909;-87
2022/12/25 05:54:32;;;;;;;;;;;10.40;99.90;;;;;;4997709;28;19909;-87
2022/12/25 05:56:58;;;;;;;;;;;10.40;99.90;;;;;;4997707;28;19959;-86
2022/12/25 05:59:23;;;;;;;;;;;10.50;99.90;;;;;;4997893;28;19996;-87
2022/12/25 06:01:49;;;;;;;;;;;10.50;99.90;;;;;;4997536;28;19916;-87
2022/12/25 06:04:14;;;;;;;;;;;10.50;99.90;;;;;;4997654;28;19916;-87
2022/12/25 06:06:40;;;;;;;;;;;10.50;99.90;;;;;;4998155;28;19913;-87
2022/12/25 06:09:05;;;;;;;;;;;10.50;99.90;;;;;;4997467;28;19921;-87
2022/12/25 06:11:31;;;;;;;;;;;10.40;99.90;;;;;;4998299;28;20290;-87
2022/12/25 06:13:56;;;;;;;;;;;10.40;99.90;;;;;;4998227;28;19909;-86
2022/12/25 06:16:22;;;;;;;;;;;10.40;99.90;;;;;;4998290;28;19916;-87
2022/12/25 06:18:48;;;;;;;;;;;10.40;99.90;;;;;;4998999;28;19910;-87
2022/12/25 06:21:14;;;;;;;;;;;10.40;99.90;;;;;;5016405;28;20383;-86
2022/12/25 06:23:40;;;;;;;;;;;10.50;99.90;;;;;;4998612;28;20004;-86
2022/12/25 06:26:07;;;;;;;;;;;10.50;99.90;;;;;;5015349;28;19909;-87
2022/12/25 06:28:32;;;;;;;;;;;10.50;99.90;;;;;;4997676;28;19909;-87
2022/12/25 06:30:57;;;;;;;;;;;10.50;99.90;;;;;;5016008;28;20283;-87
2022/12/25 06:33:23;;;;;;;;;;;10.50;99.90;;;;;;4997296;28;19964;-87
2022/12/25 06:35:48;;;;;;;;;;;10.50;99.90;;;;;;5014902;28;19945;-86
2022/12/25 06:38:14;;;;;;;;;;;10.50;99.90;;;;;;4997726;28;19917;-87
2022/12/25 06:40:39;;;;;;;;;;;10.50;99.90;;;;;;4997451;28;19921;-87
2022/12/25 06:43:05;;;;;;;;;;;10.50;99.90;;;;;;4996664;28;19910;-86
2022/12/25 06:45:30;;;;;;;;;;;10.50;99.90;;;;;;4996816;28;19960;-87
2022/12/25 06:47:56;;;;;;;;;;;10.50;99.90;;;;;;4997040;28;19909;-86
2022/12/25 06:50:21;;;;;;;;;;;10.50;99.90;;;;;;5014217;28;20278;-86
2022/12/25 06:52:47;;;;;;;;;;;10.50;99.90;;;;;;5014067;28;19968;-86
2022/12/25 06:55:12;;;;;;;;;;;10.50;99.90;;;;;;4996749;28;19909;-86
2022/12/25 06:57:37;;;;;;;;;;;10.60;99.90;;;;;;4996764;28;19917;-87
2022/12/25 07:00:03;;;;;;;;;;;10.60;99.90;;;;;;4996406;28;19936;-86
2022/12/25 07:02:31;;;;;;;;;;;10.60;99.90;;;;;;4996074;28;19909;-87
2022/12/25 07:04:56;;;;;;;;;;;10.60;99.90;;;;;;5014245;28;19909;-86
2022/12/25 07:07:22;;;;;;;;;;;10.70;99.90;;;;;;5013676;28;20008;-86
2022/12/25 07:09:47;;;;;;;;;;;10.70;99.90;;;;;;4996477;28;19928;-86
2022/12/25 07:12:15;;;;;;;;;;;10.70;99.90;;;;;;5013337;28;19977;-85
2022/12/25 07:14:40;;;;;;;;;;;10.70;99.90;;;;;;5013579;28;19913;-86
2022/12/25 07:17:06;;;;;;;;;;;10.80;99.90;;;;;;4996027;28;19932;-87
2022/12/25 07:19:31;;;;;;;;;;;10.70;99.90;;;;;;4996600;28;20354;-86
2022/12/25 07:21:57;;;;;;;;;;;10.80;99.90;;;;;;4996024;28;19916;-87
2022/12/25 07:24:22;;;;;;;;;;;10.80;99.90;;;;;;4996115;28;20260;-86
2022/12/25 07:26:48;;;;;;;;;;;10.80;99.90;;;;;;4996322;28;19920;-87
2022/12/25 07:29:14;;;;;;;;;;;10.80;99.90;;;;;;4995797;28;19913;-86
2022/12/25 07:31:40;;;;;;;;;;;10.80;99.90;;;;;;4995790;28;19914;-87
2022/12/25 07:34:05;;;;;;;;;;;10.80;99.90;;;;;;4996130;28;19976;-86
2022/12/25 07:36:31;;;;;;;;;;;10.80;99.90;;;;;;5013506;28;19914;-87
2022/12/25 07:38:56;;;;;;;;;;;10.70;99.90;;;;;;4996133;28;19937;-85
2022/12/25 07:41:22;;;;;;;;;;;10.80;99.90;;;;;;5013524;28;19909;-87
2022/12/25 07:43:48;;;;;;;;;;;10.80;99.90;;;;;;4996288;28;19909;-86
2022/12/25 07:46:13;;;;;;;;;;;10.80;99.90;;;;;;4995964;28;19909;-87
2022/12/25 07:48:39;;;;;;;;;;;10.90;99.90;;;;;;4996241;28;19928;-86
2022/12/25 07:51:05;;;;;;;;;;;10.80;99.90;;;;;;4995806;28;20044;-86
2022/12/25 07:53:31;;;;;;;;;;;10.80;99.90;;;;;;4995972;28;19913;-87
2022/12/25 07:55:58;;;;;;;;;;;10.80;99.90;;;;;;4995779;28;20430;-87
2022/12/25 07:58:24;;;;;;;;;;;10.80;99.90;;;;;;4995775;28;19949;-86
2022/12/25 08:00:49;;;;;;;;;;;10.80;99.90;;;;;;4995954;28;20011;-87
2022/12/25 08:03:15;;;;;;;;;;;10.80;99.90;;;;;;4995423;28;19909;-87
2022/12/25 08:05:41;;;;;;;;;;;10.80;99.90;;;;;;4995362;28;19918;-87
2022/12/25 08:08:06;;;;;;;;;;;10.80;99.90;;;;;;5013036;28;19917;-87
2022/12/25 08:10:32;;;;;;;;;;;10.80;99.90;;;;;;4995952;28;19963;-87
2022/12/25 08:12:57;;;;;;;;;;;10.90;99.90;;;;;;4995025;28;19910;-86
2022/12/25 08:15:22;;;;;;;;;;;10.90;99.90;;;;;;4995363;28;20446;-87
2022/12/25 08:17:48;;;;;;;;;;;10.90;99.90;;;;;;4995320;28;19910;-86
2022/12/25 08:20:13;;;;;;;;;;;11.00;99.90;;;;;;4995406;28;19909;-86
2022/12/25 08:22:39;;;;;;;;;;;10.90;99.90;;;;;;4994857;28;20407;-86
2022/12/25 08:25:04;;;;;;;;;;;10.90;99.90;;;;;;4995204;28;19916;-87
2022/12/25 08:27:30;;;;;;;;;;;10.80;99.90;;;;;;4999244;28;19956;-86
2022/12/25 08:29:56;;;;;;;;;;;10.80;99.90;;;;;;5001651;28;20268;-87
2022/12/25 08:32:21;;;;;;;;;;;10.80;99.90;;;;;;5002977;28;19921;-86
2022/12/25 08:34:48;;;;;;;;;;;10.80;99.90;;;;;;5019563;28;20359;-87
2022/12/25 08:37:13;;;;;;;;;;;10.80;99.90;;;;;;5018416;28;20382;-87
2022/12/25 08:39:39;;;;;;;;;;;10.80;99.90;;;;;;5001025;28;19914;-86
2022/12/25 08:42:04;;;;;;;;;;;10.80;99.90;;;;;;4982743;28;19921;-86
2022/12/25 08:44:30;;;;;;;;;;;10.80;99.90;;;;;;4978117;28;19983;-86
2022/12/25 08:46:55;;;;;;;;;;;10.70;99.90;;;;;;4978950;28;19916;-86
2022/12/25 08:49:21;;;;;;;;;;;10.70;99.90;;;;;;4979220;28;20039;-85
2022/12/25 08:51:46;;;;;;;;;;;10.80;99.90;;;;;;4993212;28;19914;-86
2022/12/25 08:54:12;;;;;;;;;;;10.80;99.90;;;;;;4977299;28;20001;-86
2022/12/25 08:56:37;;;;;;;;;;;10.80;99.90;;;;;;4960004;28;19911;-86
2022/12/25 08:59:03;;;;;;;;;;;10.90;99.90;;;;;;4960580;28;20438;-85
2022/12/25 09:01:28;;;;;;;;;;;10.90;99.90;;;;;;4960767;28;19914;-86
2022/12/25 09:03:54;;;;;;;;;;;11.00;99.90;;;;;;4977775;28;20370;-86
2022/12/25 09:06:19;;;;;;;;;;;11.10;99.90;;;;;;4999087;28;19913;-86
2022/12/25 09:08:45;;;;;;;;;;;11.00;99.90;;;;;;4998898;28;19996;-87
2022/12/25 09:11:12;;;;;;;;;;;11.00;99.90;;;;;;4998336;28;19945;-86
2022/12/25 09:13:37;;;;;;;;;;;11.00;99.90;;;;;;4998904;28;19996;-87
2022/12/25 09:16:07;;;;;;;;;;;10.90;99.90;;;;;;4998516;28;20375;-86
2022/12/25 09:18:32;;;;;;;;;;;10.90;99.90;;;;;;5016084;28;20375;-87
2022/12/25 09:20:59;;;;;;;;;;;11.00;99.90;;;;;;5015999;28;19910;-87
2022/12/25 09:23:24;;;;;;;;;;;11.00;99.90;;;;;;4998917;28;19909;-86
2022/12/25 09:25:50;;;;;;;;;;;11.00;99.90;;;;;;4999311;28;19909;-86
2022/12/25 09:28:15;;;;;;;;;;;11.10;99.90;;;;;;4998407;28;19917;-87
2022/12/25 09:30:41;;;;;;;;;;;11.10;99.90;;;;;;4997983;28;19925;-86
2022/12/25 09:33:06;;;;;;;;;;;11.10;99.90;;;;;;4998492;28;19909;-87
2022/12/25 09:35:32;;;;;;;;;;;11.20;99.90;;;;;;4998107;28;19910;-87
2022/12/25 09:37:57;;;;;;;;;;;11.30;99.90;;;;;;4998456;28;20351;-87
2022/12/25 09:40:28;;;;;;;;;;;11.30;99.90;;;;;;4998785;28;19910;-87
2022/12/25 09:43:00;;;;;;;;;;;11.30;99.90;;;;;;5000017;28;20446;-86
2022/12/25 09:45:28;;;;;;;;;;;11.30;99.90;;;;;;4998005;28;19917;-87
2022/12/25 09:47:55;;;;;;;;;;;11.30;99.90;;;;;;4997768;28;19953;-87
2022/12/25 09:50:30;;;;;;;;;;;11.30;99.90;;;;;;4997769;28;19921;-88
2022/12/25 09:53:07;;;;;;;;;;;11.40;99.90;;;;;;4997614;28;20020;-88
2022/12/25 09:55:35;;;;;;;;;;;11.40;99.90;;;;;;4997920;28;19910;-88
2022/12/25 09:58:07;;;;;;;;;;;11.40;99.90;;;;;;4997263;28;19917;-89
2022/12/25 10:00:46;;;;;;;;;;;11.40;99.90;;;;;;4998132;28;19909;-89
2022/12/25 10:03:12;;;;;;;;;;;11.40;99.90;;;;;;4997942;28;20020;-89
2022/12/25 10:05:46;;;;;;;;;;;11.40;99.90;;;;;;4997876;28;19948;-88
2022/12/25 10:08:22;;;;;;;;;;;11.40;99.90;;;;;;4997451;28;19909;-89
2022/12/25 10:10:51;;;;;;;;;;;11.30;99.90;;;;;;4997742;28;19918;-89
2022/12/25 10:13:44;;;;;;;;;;;11.30;99.90;;;;;;4997556;28;19909;-89
2022/12/25 10:16:09;;;;;;;;;;;11.30;99.90;;;;;;4997857;28;19917;-89
2022/12/25 10:18:52;;;;;;;;;;;11.20;99.90;;;;;;4997471;28;19909;-89
2022/12/25 10:21:17;;;;;;;;;;;11.10;99.90;;;;;;4997424;28;19939;-89
2022/12/25 10:23:48;;;;;;;;;;;11.00;99.90;;;;;;4997053;28;19988;-88
2022/12/25 10:26:27;;;;;;;;;;;11.00;99.90;;;;;;4997582;28;19909;-89
2022/12/25 10:28:57;;;;;;;;;;;11.00;99.90;;;;;;4997360;28;19964;-89
2022/12/25 10:31:38;;;;;;;;;;;11.00;99.90;;;;;;4998295;28;19910;-89
2022/12/25 10:34:04;;;;;;;;;;;11.00;99.90;;;;;;4997538;28;19909;-89
2022/12/25 10:36:31;;;;;;;;;;;11.10;99.90;;;;;;4997272;28;19943;-89
2022/12/25 10:38:59;;;;;;;;;;;11.10;99.90;;;;;;4997262;28;19909;-89
2022/12/25 10:41:33;;;;;;;;;;;11.10;99.90;;;;;;4997330;28;20339;-89
2022/12/25 10:44:02;;;;;;;;;;;11.00;99.90;;;;;;4997285;28;19916;-89
2022/12/25 10:46:28;;;;;;;;;;;11.00;99.90;;;;;;4996794;28;20004;-89
2022/12/25 10:48:55;;;;;;;;;;;11.00;99.90;;;;;;4996163;28;19917;-89
2022/12/25 10:51:35;;;;;;;;;;;11.00;99.90;;;;;;4996984;28;20008;-89
2022/12/25 10:54:02;;;;;;;;;;;10.90;99.90;;;;;;4996985;28;20051;-89
2022/12/25 10:56:28;;;;;;;;;;;11.00;99.90;;;;;;4996634;28;19963;-88
2022/12/25 10:59:08;;;;;;;;;;;10.90;99.90;;;;;;4996821;28;19913;-89
2022/12/25 11:01:33;;;;;;;;;;;11.00;99.90;;;;;;4996833;28;19909;-89
2022/12/25 11:03:59;;;;;;;;;;;10.90;99.90;;;;;;4996712;28;19910;-89
2022/12/25 11:06:26;;;;;;;;;;;10.90;99.90;;;;;;4996322;28;19909;-89
2022/12/25 11:09:01;;;;;;;;;;;10.90;99.90;;;;;;4996155;28;19913;-89
2022/12/25 11:11:27;;;;;;;;;;;11.00;99.90;;;;;;4996247;28;19917;-89
2022/12/25 11:13:55;;;;;;;;;;;11.00;99.90;;;;;;4996687;28;19909;-89
2022/12/25 11:16:47;;;;;;;;;;;11.10;99.90;;;;;;4996296;28;19909;-89
2022/12/25 11:19:23;;;;;;;;;;;11.10;99.90;;;;;;4994994;28;20608;-89
2022/12/25 11:21:50;;;;;;;;;;;11.20;99.90;;;;;;4996531;28;20275;-89
2022/12/25 11:24:17;;;;;;;;;;;11.20;99.90;;;;;;4996081;28;20287;-89
2022/12/25 11:26:50;;;;;;;;;;;11.20;99.90;;;;;;4996179;28;19964;-89
2022/12/25 11:29:19;;;;;;;;;;;11.20;99.90;;;;;;4995900;28;19913;-89
2022/12/25 11:31:45;;;;;;;;;;;11.20;99.90;;;;;;4995842;28;19996;-89
2022/12/25 11:34:22;;;;;;;;;;;11.30;99.90;;;;;;4995510;28;20004;-89
2022/12/25 11:36:50;;;;;;;;;;;11.30;99.90;;;;;;4996349;28;19910;-89
2022/12/25 11:39:31;;;;;;;;;;;11.30;99.90;;;;;;4995748;28;19963;-88
2022/12/25 11:42:06;;;;;;;;;;;11.30;99.90;;;;;;5013247;28;20295;-89
2022/12/25 11:44:47;;;;;;;;;;;11.30;99.90;;;;;;4995804;28;19921;-89
2022/12/25 11:47:16;;;;;;;;;;;11.30;99.90;;;;;;4992961;28;20014;-88
2022/12/25 11:49:47;;;;;;;;;;;11.30;99.90;;;;;;4961270;28;19922;-87
2022/12/25 11:52:18;;;;;;;;;;;11.30;99.90;;;;;;4973713;28;19914;-88
2022/12/25 11:54:55;;;;;;;;;;;11.30;99.90;;;;;;4957050;28;20451;-87
2022/12/25 11:57:23;;;;;;;;;;;11.30;99.90;;;;;;4981530;28;19920;-87
2022/12/25 11:59:52;;;;;;;;;;;11.30;99.90;;;;;;4995587;28;19910;-88
2022/12/25 12:02:17;;;;;;;;;;;11.40;99.90;;;;;;4998593;28;20338;-87
2022/12/25 12:04:46;;;;;;;;;;;11.50;99.90;;;;;;5017243;28;19964;-88
2022/12/25 12:07:15;;;;;;;;;;;11.50;99.90;;;;;;4999372;28;19913;-88
2022/12/25 12:09:41;;;;;;;;;;;11.60;99.90;;;;;;4999653;28;19957;-88
2022/12/25 12:12:09;;;;;;;;;;;11.70;99.90;;;;;;4999369;28;19909;-88
2022/12/25 12:14:38;;;;;;;;;;;11.80;99.90;;;;;;4999192;28;19932;-88
2022/12/25 12:17:04;;;;;;;;;;;11.90;99.90;;;;;;4999418;28;19914;-88
2022/12/25 12:19:30;;;;;;;;;;;11.80;99.90;;;;;;4999430;28;19909;-88
2022/12/25 12:21:57;;;;;;;;;;;11.70;99.90;;;;;;5016421;28;20376;-89
2022/12/25 12:24:34;;;;;;;;;;;11.70;99.90;;;;;;5016598;28;19943;-88
2022/12/25 12:27:13;;;;;;;;;;;11.60;99.90;;;;;;4998946;28;20356;-88
2022/12/25 12:29:43;;;;;;;;;;;11.60;99.90;;;;;;4999010;28;19913;-89
2022/12/25 12:32:35;;;;;;;;;;;11.60;99.90;;;;;;4998611;28;20253;-89
2022/12/25 12:35:14;;;;;;;;;;;11.60;99.90;;;;;;4982787;28;20446;-88
2022/12/25 12:37:41;;;;;;;;;;;11.70;99.90;;;;;;4960051;28;19921;-89
2022/12/25 12:40:07;;;;;;;;;;;11.80;99.90;;;;;;4985697;28;19917;-88
2022/12/25 12:42:39;;;;;;;;;;;11.80;99.90;;;;;;4958482;28;20009;-88
2022/12/25 12:45:09;;;;;;;;;;;11.90;99.90;;;;;;4960202;28;19917;-89
2022/12/25 12:47:42;;;;;;;;;;;11.90;99.90;;;;;;4959948;28;19918;-89
2022/12/25 12:50:25;;;;;;;;;;;11.90;99.90;;;;;;4960045;28;20012;-89
2022/12/25 12:52:51;;;;;;;;;;;12.00;99.90;;;;;;4959927;28;19968;-89
2022/12/25 12:55:33;;;;;;;;;;;12.10;99.90;;;;;;4960419;28;20005;-89
2022/12/25 12:58:00;;;;;;;;;;;12.10;99.90;;;;;;4960346;28;19910;-88
2022/12/25 13:00:28;;;;;;;;;;;12.10;99.90;;;;;;4959782;28;19910;-89
2022/12/25 13:02:56;;;;;;;;;;;12.10;99.90;;;;;;4959358;28;19917;-88
2022/12/25 13:05:31;;;;;;;;;;;12.10;99.90;;;;;;4959499;28;19921;-88
2022/12/25 13:07:57;;;;;;;;;;;12.10;99.90;;;;;;4959511;28;19942;-88
2022/12/25 13:10:25;;;;;;;;;;;12.10;99.90;;;;;;4959482;28;19934;-90
2022/12/25 13:12:56;;;;;;;;;;;12.10;99.90;;;;;;4976070;28;19922;-88
2022/12/25 13:15:23;;;;;;;;;;;12.10;99.90;;;;;;4959667;28;19949;-88
2022/12/25 13:17:49;;;;;;;;;;;12.10;99.90;;;;;;4959592;28;19911;-89
2022/12/25 13:20:29;;;;;;;;;;;12.10;99.90;;;;;;4959994;28;19910;-89
2022/12/25 13:22:55;;;;;;;;;;;12.20;99.90;;;;;;4959495;28;20013;-89
2022/12/25 13:25:22;;;;;;;;;;;12.20;99.90;;;;;;4959679;28;19961;-89
2022/12/25 13:27:55;;;;;;;;;;;12.20;99.90;;;;;;4959210;28;19917;-89
2022/12/25 13:30:21;;;;;;;;;;;12.30;99.90;;;;;;4959278;28;19918;-89
2022/12/25 13:32:48;;;;;;;;;;;12.20;99.90;;;;;;4958684;28;19910;-88
2022/12/25 13:35:14;;;;;;;;;;;12.20;99.90;;;;;;4959449;28;20398;-89
2022/12/25 13:37:42;;;;;;;;;;;12.20;99.90;;;;;;4959275;28;19914;-89
2022/12/25 13:40:37;;;;;;;;;;;12.20;99.90;;;;;;4959067;28;19916;-88
2022/12/25 13:43:03;;;;;;;;;;;12.20;99.90;;;;;;4962350;28;19969;-88
2022/12/25 13:45:30;;;;;;;;;;;12.20;99.90;;;;;;4958985;28;19942;-89
2022/12/25 13:47:56;;;;;;;;;;;12.10;99.90;;;;;;4958940;28;19916;-88
2022/12/25 13:50:25;;;;;;;;;;;12.10;99.90;;;;;;4970469;23;20029;-84
2022/12/25 13:52:54;;;;;;;;;;;12.10;99.90;;;;;;4932192;29;19914;-85
2022/12/25 13:55:21;;;;;;;;;;;12.00;99.90;;;;;;4921286;29;20428;-85
2022/12/25 13:57:52;;;;;;;;;;;12.00;99.90;;;;;;4936896;29;19918;-85
2022/12/25 14:00:19;;;;;;;;;;;12.00;99.90;;;;;;4936723;29;19922;-85
2022/12/25 14:02:45;;;;;;;;;;;12.00;99.90;;;;;;4936232;29;19910;-86
2022/12/25 14:05:22;;;;;;;;;;;12.00;99.90;;;;;;4937837;29;20361;-85
2022/12/25 14:07:52;;;;;;;;;;;12.00;99.90;;;;;;4936828;29;20381;-85
2022/12/25 14:10:18;;;;;;;;;;;12.00;99.90;;;;;;4936845;29;19922;-85
2022/12/25 14:12:48;;;;;;;;;;;12.00;99.90;;;;;;4936882;29;19911;-87
2022/12/25 14:15:16;;;;;;;;;;;12.00;99.90;;;;;;4936258;29;19911;-85
2022/12/25 14:17:42;;;;;;;;;;;12.00;99.90;;;;;;4950460;28;19952;-85
2022/12/25 14:20:20;;;;;;;;;;;11.90;99.90;;;;;;4976058;28;19983;-84
2022/12/25 14:22:49;;;;;;;;;;;11.90;99.90;;;;;;4976052;28;19910;-86
2022/12/25 14:25:14;;;;;;;;;;;11.90;99.90;;;;;;4958232;28;19910;-84
2022/12/25 14:27:46;;;;;;;;;;;11.90;99.90;;;;;;4976249;28;19917;-85
2022/12/25 14:30:11;;;;;;;;;;;11.90;99.90;;;;;;4958382;28;19921;-85
2022/12/25 14:32:40;;;;;;;;;;;11.90;99.90;;;;;;4958468;28;19914;-85
2022/12/25 14:35:08;;;;;;;;;;;11.90;99.90;;;;;;4958870;28;19964;-84
2022/12/25 14:37:35;;;;;;;;;;;11.90;99.90;;;;;;4958248;28;19910;-85
2022/12/25 14:40:05;;;;;;;;;;;11.90;99.90;;;;;;4958451;28;19910;-85
2022/12/25 14:42:31;;;;;;;;;;;11.90;99.90;;;;;;4975392;28;19910;-85
2022/12/25 14:45:03;;;;;;;;;;;12.00;99.90;;;;;;4958231;28;20005;-86
2022/12/25 14:47:30;;;;;;;;;;;12.00;99.90;;;;;;4975425;28;20005;-85
2022/12/25 14:49:55;;;;;;;;;;;12.00;99.90;;;;;;4957813;28;19941;-86
2022/12/25 14:52:23;;;;;;;;;;;12.00;99.90;;;;;;4957926;28;19910;-85
2022/12/25 14:54:50;;;;;;;;;;;12.10;99.90;;;;;;4957808;28;20261;-86
2022/12/25 14:57:25;;;;;;;;;;;12.10;99.90;;;;;;4957818;28;20004;-85
2022/12/25 14:59:59;;;;;;;;;;;12.10;99.90;;;;;;4957763;28;20383;-85
2022/12/25 15:02:25;;;;;;;;;;;12.10;99.90;;;;;;4957595;28;19910;-85
2022/12/25 15:04:50;;;;;;;;;;;12.20;99.90;;;;;;4957746;28;19910;-86
2022/12/25 15:07:29;;;;;;;;;;;12.20;99.90;;;;;;4976234;28;19965;-85
2022/12/25 15:09:54;;;;;;;;;;;12.20;99.90;;;;;;4975244;28;20014;-85
2022/12/25 15:12:20;;;;;;;;;;;12.20;99.90;;;;;;4974147;28;19953;-84
2022/12/25 15:14:45;;;;;;;;;;;12.20;99.90;;;;;;4946334;29;19914;-85
2022/12/25 15:17:20;;;;;;;;;;;12.30;99.90;;;;;;4956088;28;19961;-85
2022/12/25 15:19:45;;;;;;;;;;;12.20;99.90;;;;;;4971307;28;19914;-85
2022/12/25 15:22:11;;;;;;;;;;;12.20;99.90;;;;;;4956634;28;19986;-85
2022/12/25 15:24:37;;;;;;;;;;;12.20;99.90;;;;;;4973167;28;19918;-85
2022/12/25 15:27:04;;;;;;;;;;;12.20;99.90;;;;;;4943579;28;20004;-85
2022/12/25 15:29:29;;;;;;;;;;;12.20;99.90;;;;;;4937718;29;19914;-85
2022/12/25 15:31:55;;;;;;;;;;;12.20;99.90;;;;;;4934480;29;19921;-84
2022/12/25 15:34:20;;;;;;;;;;;12.20;99.90;;;;;;4958322;28;19918;-85
2022/12/25 15:36:52;;;;;;;;;;;12.20;99.90;;;;;;4956139;28;19917;-84
2022/12/25 15:39:17;;;;;;;;;;;12.30;99.90;;;;;;4918618;29;19915;-84
2022/12/25 15:44:27;;;;;;;;;;;12.30;99.90;;;;;;4954282;29;19926;-85
2022/12/25 15:46:53;;;;;;;;;;;12.20;99.90;;;;;;4934790;29;19914;-86
2022/12/25 15:49:18;;;;;;;;;;;12.20;99.90;;;;;;4934197;29;19974;-85
2022/12/25 15:51:45;;;;;;;;;;;12.20;99.90;;;;;;4936821;29;19910;-84
2022/12/25 15:54:10;;;;;;;;;;;12.20;99.90;;;;;;4941889;28;19910;-85
2022/12/25 15:56:39;;;;;;;;;;;12.20;99.90;;;;;;4959684;28;19981;-86
2022/12/25 15:59:05;;;;;;;;;;;12.10;99.90;;;;;;4961737;28;20364;-84
2022/12/25 16:01:30;;;;;;;;;;;12.10;99.90;;;;;;4956914;29;19918;-82
2022/12/25 16:03:55;;;;;;;;;;;12.10;99.90;;;;;;4956697;29;19922;-86
2022/12/25 16:06:21;;;;;;;;;;;12.10;99.90;;;;;;4941803;29;20002;-84
2022/12/25 16:08:46;;;;;;;;;;;12.20;99.90;;;;;;4940780;29;19925;-83
2022/12/25 16:11:12;;;;;;;;;;;12.10;99.90;;;;;;4941725;29;19921;-84
2022/12/25 16:13:37;;;;;;;;;;;12.10;99.90;;;;;;4961969;28;20368;-85